This is the latest recevied weather packets stored in our database for station/object N0YWB. If no packets are shown the sender has not sent any weather packets the latest 10 day(s).
| Time | Temp. | Humidity | Pressure | Rain* | Wind** | Luminosity | Snow |
|---|---|---|---|---|---|---|---|
| 1777754718 | 17.22° C | 41% | 1020.4 hPa | 0 mm | - | - | - |
| 1777754121 | 17.22° C | 39% | 1020.6 hPa | 0 mm | - | - | - |
| 1777752329 | 16.67° C | 38% | 1021.1 hPa | 0 mm | - | - | - |
| 1777749916 | 17.22° C | 41% | 1021.6 hPa | 0 mm | - | - | - |
| 1777747546 | 16.11° C | 40% | 1022.1 hPa | 0 mm | - | - | - |
| 1777736116 | 13.33° C | 47% | 1023.3 hPa | 0 mm | - | - | - |
| 1777734942 | 13.33° C | 51% | 1023.3 hPa | 0 mm | - | - | - |
| 1777726517 | 4.44° C | 99% | 1023.3 hPa | 0 mm | - | - | - |
| 1777724147 | 3.33° C | 95% | 1023 hPa | 0 mm | - | - | - |
| 1777723530 | 2.22° C | 98% | 1023 hPa | 0 mm | - | - | - |
| 1777719330 | -0.56° C | 99% | 1022.5 hPa | 0 mm | - | - | - |
| 1777710315 | 2.22° C | 91% | 1022.1 hPa | 0 mm | - | - | - |
| 1777709120 | 2.22° C | 89% | 1022 hPa | 0 mm | - | - | - |
| 1777708523 | 2.78° C | 87% | 1022 hPa | 0 mm | - | - | - |
| 1777705531 | 3.89° C | 84% | 1022 hPa | 0 mm | - | - | - |
| 1777701351 | 5.56° C | 81% | 1021.9 hPa | 0 mm | - | - | - |
| 1777698326 | 6.67° C | 78% | 1021.6 hPa | 0 mm | - | - | - |
| 1777696516 | 6.67° C | 83% | 1021.5 hPa | 0 mm | - | - | - |
| 1777695918 | 6.67° C | 85% | 1021.5 hPa | 0 mm | - | - | - |
| 1777694146 | 6.67° C | 86% | 1021.5 hPa | 0 mm | - | - | - |
| 1777692931 | 6.67° C | 87% | 1021.3 hPa | 0 mm | - | - | - |
| 1777689926 | 6.11° C | 84% | 1020.7 hPa | 0 mm | - | - | - |
| 1777689329 | 6.67° C | 84% | 1020.6 hPa | 0 mm | - | - | - |
| 1777685720 | 8.33° C | 74% | 1019.7 hPa | 0 mm | - | - | - |
| 1777677342 | 12.22° C | 60% | 1019.2 hPa | 0 mm | - | - | - |
* Rain latest hour (hover to see other rain measurements)
** Current wind speed in m/s (hover to see current wind gust speed)